Time;durP1;ratioP1;P1;durP2;ratioP2;P2;SDS_P1;SDS_P2;PMS_P1;PMS_P2;Temp;Humidity;BMP_temperature;BMP_pressure;BME280_temperature;BME280_humidity;BME280_pressure;Samples;Min_cycle;Max_cycle;Signal;HPM_P1;HPM_P2
2023/01/21 00:00:59;;;;;;;19.38;7.55;;;;;;;;;;5030324;28;20058;-85
2023/01/21 00:03:25;;;;;;;15.13;5.82;;;;;;;;;;5047994;28;20048;-85
2023/01/21 00:05:50;;;;;;;16.40;5.60;;;;;;;;;;5029420;28;20028;-85
2023/01/21 00:08:15;;;;;;;14.57;5.35;;;;;;;;;;5065499;28;20123;-82
2023/01/21 00:10:42;;;;;;;17.60;6.63;;;;;;;;;;5040811;28;20127;-82
2023/01/21 00:13:07;;;;;;;13.38;5.57;;;;;;;;;;5045054;28;20531;-85
2023/01/21 00:15:34;;;;;;;17.25;6.65;;;;;;;;;;5028627;28;20090;-86
2023/01/21 00:18:00;;;;;;;19.25;6.80;;;;;;;;;;5036629;28;20380;-84
2023/01/21 00:20:25;;;;;;;15.80;6.30;;;;;;;;;;5046644;28;20032;-84
2023/01/21 00:22:52;;;;;;;14.88;5.95;;;;;;;;;;5031448;28;20488;-84
2023/01/21 00:25:18;;;;;;;13.32;5.68;;;;;;;;;;5031206;28;20120;-84
2023/01/21 00:27:44;;;;;;;12.85;5.85;;;;;;;;;;5044007;28;20124;-83
2023/01/21 00:30:10;;;;;;;11.82;5.13;;;;;;;;;;5017468;28;20090;-85
2023/01/21 00:32:35;;;;;;;10.70;4.78;;;;;;;;;;5013892;28;20041;-84
2023/01/21 00:35:00;;;;;;;10.80;4.72;;;;;;;;;;5026290;28;20157;-85
2023/01/21 00:37:26;;;;;;;12.07;5.25;;;;;;;;;;5029394;28;20065;-85
2023/01/21 00:39:51;;;;;;;12.30;4.43;;;;;;;;;;5018005;28;20037;-85
2023/01/21 00:42:16;;;;;;;12.32;5.03;;;;;;;;;;5016506;28;20048;-84
2023/01/21 00:44:42;;;;;;;10.75;4.80;;;;;;;;;;5016962;28;20033;-85
2023/01/21 00:47:07;;;;;;;12.75;5.30;;;;;;;;;;5014463;28;20558;-85
2023/01/21 00:49:33;;;;;;;11.48;5.32;;;;;;;;;;5015095;28;20156;-85
2023/01/21 00:51:58;;;;;;;14.02;4.95;;;;;;;;;;5016942;28;20025;-85
2023/01/21 00:54:23;;;;;;;11.85;5.38;;;;;;;;;;5032451;28;20029;-82
2023/01/21 00:56:49;;;;;;;13.25;5.32;;;;;;;;;;5016473;28;20053;-84
2023/01/21 00:59:14;;;;;;;14.02;5.50;;;;;;;;;;5019978;28;20477;-85
2023/01/21 01:01:40;;;;;;;12.15;5.45;;;;;;;;;;5012590;28;20087;-85
2023/01/21 01:04:05;;;;;;;14.05;4.75;;;;;;;;;;5012645;28;20041;-85
2023/01/21 01:06:31;;;;;;;11.10;5.15;;;;;;;;;;5013072;28;20040;-84
2023/01/21 01:08:57;;;;;;;13.63;5.55;;;;;;;;;;5012700;28;20181;-84
2023/01/21 01:11:25;;;;;;;12.65;5.38;;;;;;;;;;5018635;28;20040;-85
2023/01/21 01:13:53;;;;;;;12.48;5.00;;;;;;;;;;5014180;28;20739;-85
2023/01/21 01:16:20;;;;;;;12.43;5.40;;;;;;;;;;5030158;28;20033;-85
2023/01/21 01:18:46;;;;;;;13.93;5.10;;;;;;;;;;5010337;28;20037;-84
2023/01/21 01:21:13;;;;;;;10.82;4.82;;;;;;;;;;5030110;28;20044;-85
2023/01/21 01:23:39;;;;;;;10.48;5.25;;;;;;;;;;5032167;28;20036;-85
2023/01/21 01:26:07;;;;;;;12.23;4.90;;;;;;;;;;5017292;28;20036;-86
2023/01/21 01:28:33;;;;;;;11.13;4.30;;;;;;;;;;5014046;28;20128;-86
2023/01/21 01:30:59;;;;;;;13.23;5.63;;;;;;;;;;5046782;28;20551;-85
2023/01/21 01:33:25;;;;;;;11.52;4.82;;;;;;;;;;5033116;28;20045;-81
2023/01/21 01:35:50;;;;;;;11.15;4.60;;;;;;;;;;5046429;28;20539;-84
2023/01/21 01:38:21;;;;;;;10.57;5.03;;;;;;;;;;5049429;28;20042;-83
2023/01/21 01:40:48;;;;;;;13.38;5.72;;;;;;;;;;5033602;28;20036;-85
2023/01/21 01:43:18;;;;;;;11.68;4.65;;;;;;;;;;5050634;28;20047;-84
2023/01/21 01:45:44;;;;;;;12.00;5.03;;;;;;;;;;5049948;28;20033;-84
2023/01/21 01:48:13;;;;;;;10.00;4.90;;;;;;;;;;5024424;28;20063;-84
2023/01/21 01:50:38;;;;;;;11.65;4.57;;;;;;;;;;5041881;28;20108;-85
2023/01/21 01:53:04;;;;;;;10.30;4.30;;;;;;;;;;5049847;28;20464;-85
2023/01/21 01:55:32;;;;;;;10.23;4.32;;;;;;;;;;5032615;28;20132;-86
2023/01/21 01:57:58;;;;;;;9.30;4.43;;;;;;;;;;5050899;28;20033;-85
2023/01/21 02:00:24;;;;;;;8.98;3.88;;;;;;;;;;5065445;28;20032;-84
2023/01/21 02:05:36;;;;;;;8.95;3.30;;;;;;;;;;5041206;28;20959;-87
2023/01/21 02:08:01;;;;;;;9.63;4.28;;;;;;;;;;5025242;28;20036;-83
2023/01/21 02:10:27;;;;;;;8.57;4.40;;;;;;;;;;5034674;28;20032;-87
2023/01/21 02:12:52;;;;;;;10.18;4.18;;;;;;;;;;5050388;28;20473;-84
2023/01/21 02:15:18;;;;;;;10.00;4.53;;;;;;;;;;5028543;28;20056;-82
2023/01/21 02:18:20;;;;;;;10.88;4.78;;;;;;;;;;5049808;28;20372;-83
2023/01/21 02:21:09;;;;;;;10.70;4.68;;;;;;;;;;5048358;28;20458;-85
2023/01/21 02:24:08;;;;;;;14.07;5.10;;;;;;;;;;5047923;28;20040;-85
2023/01/21 02:26:58;;;;;;;12.45;5.05;;;;;;;;;;5037069;28;20040;-85
2023/01/21 02:30:04;;;;;;;15.18;6.38;;;;;;;;;;5044543;28;20087;-82
2023/01/21 02:32:50;;;;;;;12.27;5.22;;;;;;;;;;5059332;28;20950;-83
2023/01/21 02:35:27;;;;;;;13.97;5.30;;;;;;;;;;5044966;28;20041;-86
2023/01/21 02:37:52;;;;;;;11.85;5.75;;;;;;;;;;5043637;28;20036;-81
2023/01/21 02:40:37;;;;;;;12.73;5.15;;;;;;;;;;5044392;28;20033;-82
2023/01/21 02:43:19;;;;;;;12.35;5.03;;;;;;;;;;5044529;28;20056;-82
2023/01/21 02:45:49;;;;;;;13.57;5.63;;;;;;;;;;5045490;28;20037;-84
2023/01/21 02:48:30;;;;;;;13.65;5.88;;;;;;;;;;5028715;28;20116;-83
2023/01/21 02:50:55;;;;;;;12.80;5.57;;;;;;;;;;5045625;28;20385;-83
2023/01/21 02:53:32;;;;;;;15.90;5.95;;;;;;;;;;5046968;28;20033;-84
2023/01/21 02:56:05;;;;;;;16.17;6.40;;;;;;;;;;5029116;28;20065;-83
2023/01/21 02:58:36;;;;;;;15.75;6.47;;;;;;;;;;5024502;28;20037;-84
2023/01/21 03:01:11;;;;;;;16.48;6.32;;;;;;;;;;5044411;28;20029;-83
2023/01/21 03:04:18;;;;;;;14.98;6.35;;;;;;;;;;5060546;28;20152;-84
2023/01/21 03:06:52;;;;;;;15.40;5.70;;;;;;;;;;5043050;28;20505;-85
2023/01/21 03:09:27;;;;;;;17.17;6.18;;;;;;;;;;5060469;28;20055;-84
2023/01/21 03:11:55;;;;;;;16.02;6.13;;;;;;;;;;5028693;28;20059;-85
2023/01/21 03:17:36;;;;;;;16.00;6.22;;;;;;;;;;5045648;28;20068;-85
2023/01/21 03:20:07;;;;;;;17.23;6.97;;;;;;;;;;5043828;28;20044;-83
2023/01/21 03:22:34;;;;;;;14.68;5.95;;;;;;;;;;5044012;28;20041;-85
2023/01/21 03:25:01;;;;;;;;;;;;;;;;;;5020058;28;20709;-86
2023/01/21 03:27:27;;;;;;;14.00;5.93;;;;;;;;;;5027283;28;19995;-84
2023/01/21 03:29:58;;;;;;;15.73;6.45;;;;;;;;;;5038066;28;20124;-84
2023/01/21 03:32:25;;;;;;;14.13;5.85;;;;;;;;;;5031307;28;20051;-86
2023/01/21 03:34:54;;;;;;;12.43;5.60;;;;;;;;;;5048461;28;20032;-86
2023/01/21 03:37:27;;;;;;;12.82;5.30;;;;;;;;;;5049308;28;20059;-85
2023/01/21 03:40:04;;;;;;;15.15;7.25;;;;;;;;;;5027419;28;20037;-83
2023/01/21 03:42:30;;;;;;;13.65;5.82;;;;;;;;;;5036845;28;20075;-85
2023/01/21 03:44:55;;;;;;;14.43;5.55;;;;;;;;;;5037787;28;20052;-84
2023/01/21 03:47:30;;;;;;;15.30;6.10;;;;;;;;;;5066855;28;20036;-85
2023/01/21 03:50:09;;;;;;;16.83;5.95;;;;;;;;;;5048840;28;20039;-84
2023/01/21 03:52:39;;;;;;;12.68;5.30;;;;;;;;;;5048557;28;20055;-85
2023/01/21 03:55:05;;;;;;;14.48;5.32;;;;;;;;;;5064935;28;20881;-83
2023/01/21 03:57:30;;;;;;;12.80;6.40;;;;;;;;;;5045171;28;20431;-86
2023/01/21 03:59:55;;;;;;;13.15;5.38;;;;;;;;;;5048481;28;20107;-85
2023/01/21 04:02:21;;;;;;;12.32;5.35;;;;;;;;;;5047744;28;20506;-86
2023/01/21 04:04:48;;;;;;;15.35;6.07;;;;;;;;;;5046326;28;20033;-86
2023/01/21 04:07:14;;;;;;;14.82;6.50;;;;;;;;;;5046768;28;20887;-86
2023/01/21 04:09:40;;;;;;;13.57;5.97;;;;;;;;;;5050147;28;20404;-86
2023/01/21 04:12:05;;;;;;;13.25;5.57;;;;;;;;;;5034153;28;20025;-87
2023/01/21 04:14:31;;;;;;;13.32;5.57;;;;;;;;;;5033928;28;20111;-88
2023/01/21 04:16:56;;;;;;;10.82;4.53;;;;;;;;;;5034452;28;20036;-85
2023/01/21 04:19:22;;;;;;;9.85;4.68;;;;;;;;;;5050406;28;20032;-87
2023/01/21 04:21:47;;;;;;;9.73;4.47;;;;;;;;;;5033987;28;20036;-89
2023/01/21 04:24:12;;;;;;;11.05;5.13;;;;;;;;;;5035107;28;20035;-89
2023/01/21 04:26:38;;;;;;;12.43;4.50;;;;;;;;;;5035404;28;20052;-87
2023/01/21 04:29:03;;;;;;;10.20;4.68;;;;;;;;;;5034688;28;20124;-86
2023/01/21 04:31:29;;;;;;;11.93;5.18;;;;;;;;;;5036826;28;20086;-88
2023/01/21 04:33:54;;;;;;;11.88;4.45;;;;;;;;;;5051679;28;20036;-86
2023/01/21 04:36:19;;;;;;;9.25;4.47;;;;;;;;;;5033449;28;20503;-87
2023/01/21 04:38:45;;;;;;;10.10;4.68;;;;;;;;;;5052193;28;20040;-87
2023/01/21 04:41:10;;;;;;;9.65;4.60;;;;;;;;;;5029991;28;20044;-85
2023/01/21 04:43:35;;;;;;;9.40;4.45;;;;;;;;;;5036040;28;20135;-88
2023/01/21 04:46:01;;;;;;;8.00;3.90;;;;;;;;;;5049728;28;20491;-84
2023/01/21 04:48:47;;;;;;;9.30;4.18;;;;;;;;;;5036038;28;20039;-88
2023/01/21 04:51:12;;;;;;;9.88;4.72;;;;;;;;;;4990114;28;20037;-88
2023/01/21 04:53:37;;;;;;;7.53;3.53;;;;;;;;;;4992246;28;20061;-89
2023/01/21 04:56:03;;;;;;;7.57;3.45;;;;;;;;;;4989970;28;20084;-87
2023/01/21 04:58:29;;;;;;;7.57;3.85;;;;;;;;;;4991513;28;20156;-88
2023/01/21 05:00:54;;;;;;;7.60;3.63;;;;;;;;;;4972969;28;20045;-87
2023/01/21 05:03:20;;;;;;;8.13;3.40;;;;;;;;;;4986927;28;20042;-87
2023/01/21 05:05:46;;;;;;;8.95;3.78;;;;;;;;;;4972693;28;20037;-86
2023/01/21 05:08:11;;;;;;;7.70;3.40;;;;;;;;;;4984142;28;20144;-87
2023/01/21 05:10:36;;;;;;;13.25;4.47;;;;;;;;;;4971405;28;20037;-89
2023/01/21 05:13:02;;;;;;;8.25;3.50;;;;;;;;;;4987769;28;20034;-86
2023/01/21 05:15:27;;;;;;;10.32;4.47;;;;;;;;;;4988187;28;20042;-88
2023/01/21 05:17:56;;;;;;;10.18;4.47;;;;;;;;;;4989321;28;20026;-86
2023/01/21 05:20:22;;;;;;;8.85;4.20;;;;;;;;;;4966971;28;20759;-88
2023/01/21 05:22:47;;;;;;;8.23;3.70;;;;;;;;;;4985428;28;20034;-87
2023/01/21 05:25:13;;;;;;;7.78;3.78;;;;;;;;;;5005845;28;20521;-84
2023/01/21 05:27:39;;;;;;;8.68;4.53;;;;;;;;;;5007211;28;20041;-88
2023/01/21 05:30:05;;;;;;;9.30;4.05;;;;;;;;;;5037089;28;20044;-86
2023/01/21 05:32:30;;;;;;;7.97;3.80;;;;;;;;;;5064493;28;20037;-87
2023/01/21 05:34:55;;;;;;;7.72;3.50;;;;;;;;;;5032230;28;20043;-86
2023/01/21 05:37:21;;;;;;;9.20;4.20;;;;;;;;;;5048798;28;20032;-87
2023/01/21 05:39:46;;;;;;;11.00;4.18;;;;;;;;;;5029773;28;20052;-87
2023/01/21 05:42:12;;;;;;;9.30;4.25;;;;;;;;;;5049648;28;20572;-86
2023/01/21 05:44:37;;;;;;;11.43;4.40;;;;;;;;;;5028542;28;20044;-88
2023/01/21 05:47:02;;;;;;;10.20;4.07;;;;;;;;;;5048299;28;20114;-86
2023/01/21 05:49:28;;;;;;;8.43;3.67;;;;;;;;;;5033276;28;20032;-87
2023/01/21 05:51:53;;;;;;;8.43;4.00;;;;;;;;;;5033171;28;20051;-88
2023/01/21 05:54:19;;;;;;;12.80;4.70;;;;;;;;;;5040905;28;20388;-87
2023/01/21 05:56:44;;;;;;;11.18;4.95;;;;;;;;;;5043729;28;21467;-88
2023/01/21 05:59:09;;;;;;;8.18;4.07;;;;;;;;;;5040970;28;20376;-87
2023/01/21 06:01:35;;;;;;;9.75;4.25;;;;;;;;;;5066693;28;20496;-87
2023/01/21 06:04:00;;;;;;;7.95;3.85;;;;;;;;;;5049017;28;20040;-85
2023/01/21 06:06:25;;;;;;;9.98;3.90;;;;;;;;;;5032375;28;20174;-85
2023/01/21 06:08:51;;;;;;;10.23;4.15;;;;;;;;;;5049689;28;20509;-88
2023/01/21 06:11:16;;;;;;;9.52;4.25;;;;;;;;;;5067341;28;20097;-87
2023/01/21 06:13:42;;;;;;;9.75;4.13;;;;;;;;;;5032813;28;20041;-86
2023/01/21 06:16:07;;;;;;;8.90;4.25;;;;;;;;;;5049462;28;20025;-87
2023/01/21 06:18:33;;;;;;;10.23;4.45;;;;;;;;;;5032755;28;20033;-86
2023/01/21 06:20:59;;;;;;;10.50;4.18;;;;;;;;;;5065209;28;20043;-87
2023/01/21 06:23:24;;;;;;;12.02;5.22;;;;;;;;;;5069145;28;20033;-88
2023/01/21 06:25:50;;;;;;;10.13;4.35;;;;;;;;;;5037025;28;20119;-86
2023/01/21 06:28:15;;;;;;;11.20;4.68;;;;;;;;;;5032647;28;20130;-87
2023/01/21 06:30:43;;;;;;;10.93;5.18;;;;;;;;;;5033657;28;20035;-87
2023/01/21 06:33:08;;;;;;;10.88;4.75;;;;;;;;;;5048720;28;20033;-86
2023/01/21 06:35:35;;;;;;;11.82;4.78;;;;;;;;;;5048576;28;20089;-86
2023/01/21 06:38:01;;;;;;;11.13;5.28;;;;;;;;;;5033029;28;20488;-86
2023/01/21 06:40:26;;;;;;;13.35;6.00;;;;;;;;;;5035552;28;20093;-85
2023/01/21 06:42:53;;;;;;;12.90;5.78;;;;;;;;;;5068233;28;20033;-86
2023/01/21 06:45:18;;;;;;;15.30;6.43;;;;;;;;;;5024368;28;20462;-86
2023/01/21 06:47:44;;;;;;;14.02;6.05;;;;;;;;;;5027411;28;20097;-87
2023/01/21 06:50:14;;;;;;;16.98;6.35;;;;;;;;;;5038333;28;20116;-83
2023/01/21 06:52:44;;;;;;;12.68;6.28;;;;;;;;;;5037076;28;20052;-87
2023/01/21 06:55:10;;;;;;;13.27;5.72;;;;;;;;;;5037876;28;21003;-85
2023/01/21 06:57:37;;;;;;;12.15;6.18;;;;;;;;;;5048084;28;20040;-85
2023/01/21 07:00:04;;;;;;;12.80;6.68;;;;;;;;;;5049012;28;20562;-82
2023/01/21 07:02:29;;;;;;;18.27;7.90;;;;;;;;;;5032193;28;20503;-86
2023/01/21 07:04:54;;;;;;;14.82;6.60;;;;;;;;;;5030971;28;20052;-84
2023/01/21 07:07:20;;;;;;;20.17;7.53;;;;;;;;;;5032715;28;20115;-85
2023/01/21 07:09:45;;;;;;;14.32;6.60;;;;;;;;;;5028453;28;20036;-82
2023/01/21 07:12:11;;;;;;;17.60;8.13;;;;;;;;;;5033257;28;20035;-85
2023/01/21 07:14:36;;;;;;;18.15;8.05;;;;;;;;;;5032922;28;20068;-85
2023/01/21 07:17:01;;;;;;;15.50;7.18;;;;;;;;;;5048400;28;20369;-84
2023/01/21 07:19:27;;;;;;;16.67;7.30;;;;;;;;;;5028429;28;20045;-84
2023/01/21 07:21:53;;;;;;;15.43;7.07;;;;;;;;;;5028844;28;20047;-85
2023/01/21 07:24:18;;;;;;;19.13;7.43;;;;;;;;;;5031641;28;20033;-84
2023/01/21 07:26:43;;;;;;;15.38;7.15;;;;;;;;;;5032161;28;20063;-84
2023/01/21 07:29:09;;;;;;;14.20;7.00;;;;;;;;;;5028989;28;20504;-85
2023/01/21 07:31:34;;;;;;;16.13;7.53;;;;;;;;;;5046198;28;20044;-86
2023/01/21 07:34:00;;;;;;;16.10;7.82;;;;;;;;;;5047501;28;20468;-86
2023/01/21 07:36:25;;;;;;;13.38;7.30;;;;;;;;;;5035006;28;20188;-83
2023/01/21 07:38:51;;;;;;;15.93;6.88;;;;;;;;;;5049076;28;20055;-82
2023/01/21 07:41:16;;;;;;;15.18;7.30;;;;;;;;;;5030746;28;20033;-85
2023/01/21 07:43:42;;;;;;;14.38;6.68;;;;;;;;;;5048481;28;20276;-86
2023/01/21 07:46:07;;;;;;;16.48;8.07;;;;;;;;;;5030631;28;20097;-85
2023/01/21 07:48:33;;;;;;;14.30;7.47;;;;;;;;;;5034708;28;20036;-85
2023/01/21 07:50:58;;;;;;;16.38;7.75;;;;;;;;;;5046785;28;20039;-85
2023/01/21 07:53:24;;;;;;;14.38;7.05;;;;;;;;;;5035059;28;20507;-86
2023/01/21 07:55:49;;;;;;;16.35;7.57;;;;;;;;;;5030070;28;20039;-85
2023/01/21 07:58:15;;;;;;;17.80;7.90;;;;;;;;;;5030084;28;20947;-85
2023/01/21 08:00:40;;;;;;;20.08;8.43;;;;;;;;;;5029490;28;20037;-85
2023/01/21 08:03:06;;;;;;;17.98;8.30;;;;;;;;;;5030231;28;20036;-85
2023/01/21 08:05:31;;;;;;;16.63;8.20;;;;;;;;;;5027871;28;20036;-85
2023/01/21 08:07:58;;;;;;;14.18;7.07;;;;;;;;;;5030914;28;20112;-82
2023/01/21 08:10:24;;;;;;;16.85;8.20;;;;;;;;;;5030055;28;20557;-84
2023/01/21 08:12:50;;;;;;;14.50;7.35;;;;;;;;;;5028603;28;20033;-82
2023/01/21 08:15:15;;;;;;;13.02;6.72;;;;;;;;;;5027991;28;20475;-84
2023/01/21 08:17:41;;;;;;;14.70;6.97;;;;;;;;;;5035652;28;20033;-84
2023/01/21 08:20:08;;;;;;;14.27;6.75;;;;;;;;;;5026381;28;20143;-85
2023/01/21 08:22:34;;;;;;;16.55;7.85;;;;;;;;;;5044396;28;20120;-86
2023/01/21 08:24:59;;;;;;;14.10;7.18;;;;;;;;;;5044485;28;20112;-82
2023/01/21 08:27:25;;;;;;;15.73;7.38;;;;;;;;;;5044927;28;20059;-84
2023/01/21 08:29:50;;;;;;;13.02;6.82;;;;;;;;;;5028562;28;20085;-83
2023/01/21 08:32:16;;;;;;;15.40;7.22;;;;;;;;;;5030289;28;20431;-83
2023/01/21 08:34:41;;;;;;;15.70;7.10;;;;;;;;;;5062589;28;20032;-83
2023/01/21 08:37:07;;;;;;;14.05;7.03;;;;;;;;;;5028291;28;20035;-82
2023/01/21 08:39:32;;;;;;;15.00;7.30;;;;;;;;;;5044939;28;20048;-83
2023/01/21 08:42:17;;;;;;;14.50;6.57;;;;;;;;;;5027597;28;20032;-83
2023/01/21 08:44:44;;;;;;;13.93;6.65;;;;;;;;;;5006971;28;20041;-84
2023/01/21 08:47:10;;;;;;;15.10;7.75;;;;;;;;;;4987097;28;20444;-83
2023/01/21 08:49:35;;;;;;;14.88;6.65;;;;;;;;;;5019125;28;20053;-84
2023/01/21 08:52:01;;;;;;;15.48;7.22;;;;;;;;;;4996583;28;20041;-82
2023/01/21 08:54:26;;;;;;;15.52;7.40;;;;;;;;;;4996300;28;20049;-83
2023/01/21 08:56:51;;;;;;;14.48;7.30;;;;;;;;;;4998900;28;20100;-83
2023/01/21 08:59:18;;;;;;;13.32;6.60;;;;;;;;;;5003779;28;20054;-85
2023/01/21 09:01:44;;;;;;;15.55;7.38;;;;;;;;;;5001864;28;20099;-84
2023/01/21 09:04:09;;;;;;;12.93;7.03;;;;;;;;;;4999976;28;20034;-83
2023/01/21 09:06:35;;;;;;;13.27;6.60;;;;;;;;;;5001862;28;20037;-83
2023/01/21 09:09:00;;;;;;;16.35;7.10;;;;;;;;;;5000239;28;20660;-82
2023/01/21 09:11:26;;;;;;;15.55;7.22;;;;;;;;;;4981408;28;20038;-82
2023/01/21 09:13:51;;;;;;;13.65;6.82;;;;;;;;;;5007497;28;20042;-82
2023/01/21 09:16:20;;;;;;;15.25;7.68;;;;;;;;;;5018800;28;20524;-81
2023/01/21 09:18:46;;;;;;;16.13;7.78;;;;;;;;;;5007202;28;20033;-82
2023/01/21 09:21:12;;;;;;;13.07;6.75;;;;;;;;;;4996864;28;20186;-81
2023/01/21 09:23:38;;;;;;;13.73;7.15;;;;;;;;;;5064240;28;20070;-83
2023/01/21 09:26:07;;;;;;;14.68;6.90;;;;;;;;;;5029617;28;20039;-81
2023/01/21 09:28:35;;;;;;;14.60;6.75;;;;;;;;;;5021895;28;20040;-81
2023/01/21 09:31:06;;;;;;;14.05;7.20;;;;;;;;;;5038043;28;20044;-82
2023/01/21 09:33:33;;;;;;;15.77;6.65;;;;;;;;;;5033638;28;20696;-84
2023/01/21 09:36:01;;;;;;;12.52;6.32;;;;;;;;;;5047417;28;20151;-84
2023/01/21 09:38:27;;;;;;;12.68;6.63;;;;;;;;;;5031302;28;20053;-83
2023/01/21 09:40:53;;;;;;;13.98;6.47;;;;;;;;;;5034794;28;20043;-84
2023/01/21 09:43:45;;;;;;;13.88;6.75;;;;;;;;;;5063796;28;20448;-83
2023/01/21 09:46:30;;;;;;;14.02;6.88;;;;;;;;;;5030152;28;20535;-84
2023/01/21 09:48:57;;;;;;;14.77;6.97;;;;;;;;;;5047859;28;20115;-83
2023/01/21 09:51:34;;;;;;;15.17;7.00;;;;;;;;;;5047062;28;20032;-84
2023/01/21 09:54:00;;;;;;;15.95;7.82;;;;;;;;;;5047682;28;20052;-85
2023/01/21 09:56:49;;;;;;;12.52;6.45;;;;;;;;;;5046210;28;20488;-83
2023/01/21 09:59:39;;;;;;;17.38;7.05;;;;;;;;;;5059497;28;20484;-85
2023/01/21 10:02:16;;;;;;;15.30;6.57;;;;;;;;;;5025309;28;20056;-85
2023/01/21 10:04:49;;;;;;;15.50;6.75;;;;;;;;;;5047264;28;20139;-85
2023/01/21 10:07:26;;;;;;;13.35;6.25;;;;;;;;;;5026873;28;20042;-85
2023/01/21 10:09:57;;;;;;;;;;;;;;;;;;5047027;28;20040;-85
2023/01/21 10:12:32;;;;;;;14.52;6.72;;;;;;;;;;5042675;28;20315;-85
2023/01/21 10:15:45;;;;;;;15.93;7.18;;;;;;;;;;5048726;28;20495;-83
2023/01/21 10:18:19;;;;;;;14.52;6.65;;;;;;;;;;5032858;28;20037;-85
2023/01/21 10:20:49;;;;;;;15.30;6.85;;;;;;;;;;5030319;28;20043;-86
2023/01/21 10:23:28;;;;;;;15.88;7.18;;;;;;;;;;5015809;28;20093;-85
2023/01/21 10:25:54;;;;;;;16.23;6.88;;;;;;;;;;5019940;28;20040;-85
2023/01/21 10:28:25;;;;;;;16.75;6.95;;;;;;;;;;5033206;28;20113;-85
2023/01/21 10:31:12;;;;;;;13.82;6.53;;;;;;;;;;5041902;28;20441;-85
2023/01/21 10:33:38;;;;;;;13.15;5.95;;;;;;;;;;5046485;28;20047;-85
2023/01/21 10:36:22;;;;;;;15.52;6.28;;;;;;;;;;5029762;28;20044;-85
2023/01/21 10:39:01;;;;;;;14.60;6.75;;;;;;;;;;5037571;28;20033;-84
2023/01/21 10:41:35;;;;;;;13.40;6.78;;;;;;;;;;5045880;28;20397;-85
2023/01/21 10:44:08;;;;;;;13.80;6.65;;;;;;;;;;5065038;28;20036;-86
2023/01/21 10:47:02;;;;;;;13.90;6.57;;;;;;;;;;5028475;28;20556;-85
2023/01/21 10:49:39;;;;;;;14.50;6.70;;;;;;;;;;5031754;28;20547;-85
2023/01/21 10:52:27;;;;;;;;;;;;;;;;;;5064199;28;20090;-85
2023/01/21 10:54:58;;;;;;;12.18;6.05;;;;;;;;;;5028948;28;19923;-85
2023/01/21 10:57:40;;;;;;;13.18;6.30;;;;;;;;;;5036597;28;20102;-86
2023/01/21 11:00:20;;;;;;;12.82;5.85;;;;;;;;;;5029511;28;20036;-84
2023/01/21 11:02:49;;;;;;;12.55;6.20;;;;;;;;;;5026867;28;20052;-83
2023/01/21 11:05:15;;;;;;;11.55;5.82;;;;;;;;;;5034295;28;20938;-84
2023/01/21 11:07:42;;;;;;;11.55;6.00;;;;;;;;;;5029713;28;20654;-82
2023/01/21 11:10:08;;;;;;;11.65;6.35;;;;;;;;;;5029497;28;20048;-84
2023/01/21 11:12:33;;;;;;;12.70;6.35;;;;;;;;;;5046110;28;20043;-86
2023/01/21 11:15:16;;;;;;;9.80;5.22;;;;;;;;;;5029795;28;20036;-85
2023/01/21 11:17:44;;;;;;;11.90;6.25;;;;;;;;;;5009966;28;20036;-86
2023/01/21 11:20:34;;;;;;;11.98;5.85;;;;;;;;;;5029060;28;20029;-86
2023/01/21 11:23:04;;;;;;;12.85;6.22;;;;;;;;;;5035108;28;20037;-86
2023/01/21 11:25:40;;;;;;;13.50;6.35;;;;;;;;;;5044271;28;20234;-86
2023/01/21 11:28:21;;;;;;;12.57;6.35;;;;;;;;;;5055997;28;20045;-86
2023/01/21 11:30:46;;;;;;;10.98;5.72;;;;;;;;;;5007501;28;21224;-87
2023/01/21 11:33:18;;;;;;;10.63;5.55;;;;;;;;;;5009644;28;20068;-84
2023/01/21 11:35:43;;;;;;;11.48;5.95;;;;;;;;;;5042314;28;20025;-84
2023/01/21 11:38:33;;;;;;;11.20;5.53;;;;;;;;;;5009776;28;20675;-84
2023/01/21 11:41:06;;;;;;;9.80;5.40;;;;;;;;;;5025116;28;20061;-83
2023/01/21 11:43:33;;;;;;;11.00;5.28;;;;;;;;;;5008995;28;20226;-83
2023/01/21 11:45:59;;;;;;;11.27;5.63;;;;;;;;;;5041102;28;20416;-83
2023/01/21 11:48:24;;;;;;;11.13;6.18;;;;;;;;;;5008434;28;20041;-84
2023/01/21 11:51:05;;;;;;;11.73;5.93;;;;;;;;;;5008361;28;20095;-84
2023/01/21 11:53:30;;;;;;;13.63;5.82;;;;;;;;;;5008771;28;20056;-83
2023/01/21 11:55:56;;;;;;;11.63;5.85;;;;;;;;;;5010346;28;20033;-83
2023/01/21 11:58:30;;;;;;;10.10;5.63;;;;;;;;;;5008745;28;20044;-83
2023/01/21 12:00:58;;;;;;;11.57;5.13;;;;;;;;;;5002649;28;20095;-83
2023/01/21 12:03:28;;;;;;;10.43;5.63;;;;;;;;;;5004313;28;20781;-84
2023/01/21 12:05:54;;;;;;;12.00;6.30;;;;;;;;;;5008698;28;20795;-83
2023/01/21 12:08:24;;;;;;;11.02;5.57;;;;;;;;;;5024378;28;20025;-84
2023/01/21 12:10:52;;;;;;;10.90;5.68;;;;;;;;;;5006763;28;20384;-84
2023/01/21 12:13:23;;;;;;;12.00;5.90;;;;;;;;;;5010167;28;20563;-83
2023/01/21 12:16:07;;;;;;;11.55;5.63;;;;;;;;;;5024513;28;20488;-85
2023/01/21 12:18:51;;;;;;;11.93;5.45;;;;;;;;;;5024716;28;20040;-82
2023/01/21 12:21:30;;;;;;;18.20;7.22;;;;;;;;;;5042608;28;21525;-84
2023/01/21 12:24:23;;;;;;;20.40;7.90;;;;;;;;;;5025536;28;20037;-85
2023/01/21 12:27:11;;;;;;;10.90;5.25;;;;;;;;;;5013790;28;20041;-84
2023/01/21 12:30:00;;;;;;;10.40;5.00;;;;;;;;;;5010471;28;20059;-83
2023/01/21 12:32:36;;;;;;;11.77;5.75;;;;;;;;;;5044273;28;20484;-88
2023/01/21 12:35:08;;;;;;;9.48;4.88;;;;;;;;;;5019203;28;20032;-85
2023/01/21 12:37:47;;;;;;;9.35;5.25;;;;;;;;;;5021871;28;20036;-86
2023/01/21 12:40:45;;;;;;;10.13;4.90;;;;;;;;;;5028671;28;20041;-87
2023/01/21 12:43:34;;;;;;;7.40;4.25;;;;;;;;;;4996271;28;20041;-87
2023/01/21 12:46:09;;;;;;;8.45;4.43;;;;;;;;;;5002990;28;20037;-87
2023/01/21 12:48:39;;;;;;;9.15;4.30;;;;;;;;;;5012575;28;20041;-86
2023/01/21 12:51:17;;;;;;;8.85;4.38;;;;;;;;;;5028483;28;20025;-86
2023/01/21 12:53:51;;;;;;;8.45;4.32;;;;;;;;;;5013045;28;20366;-86
2023/01/21 12:56:37;;;;;;;8.45;4.80;;;;;;;;;;5003533;28;20041;-88
2023/01/21 12:59:32;;;;;;;9.03;4.43;;;;;;;;;;5018425;28;20511;-85
2023/01/21 13:02:26;;;;;;;10.18;5.07;;;;;;;;;;5027748;28;20877;-86
2023/01/21 13:05:42;;;;;;;8.25;4.28;;;;;;;;;;5014601;28;20041;-86
2023/01/21 13:08:28;;;;;;;8.88;3.92;;;;;;;;;;4975647;28;20045;-85
2023/01/21 13:11:03;;;;;;;8.43;4.00;;;;;;;;;;5045529;28;20102;-84
2023/01/21 13:13:40;;;;;;;7.53;3.55;;;;;;;;;;5004804;28;20044;-83
2023/01/21 13:16:08;;;;;;;8.25;3.45;;;;;;;;;;5016668;28;20126;-86
2023/01/21 13:18:40;;;;;;;6.80;3.67;;;;;;;;;;5027854;28;20114;-84
2023/01/21 13:21:14;;;;;;;7.78;3.72;;;;;;;;;;5010416;28;20397;-86
2023/01/21 13:23:45;;;;;;;5.82;3.30;;;;;;;;;;5000418;28;20037;-85
2023/01/21 13:26:28;;;;;;;8.02;3.90;;;;;;;;;;5026604;28;20527;-86
2023/01/21 13:29:06;;;;;;;7.35;3.53;;;;;;;;;;5057751;28;20049;-85
2023/01/21 13:31:46;;;;;;;7.38;3.55;;;;;;;;;;5045697;28;20040;-85
2023/01/21 13:34:25;;;;;;;7.03;3.65;;;;;;;;;;5018388;28;20115;-85
2023/01/21 13:37:00;;;;;;;8.18;3.88;;;;;;;;;;5037398;28;20070;-84
2023/01/21 13:39:40;;;;;;;7.35;3.40;;;;;;;;;;5046761;28;20484;-84
2023/01/21 13:42:25;;;;;;;7.60;3.75;;;;;;;;;;5045317;28;20070;-85
2023/01/21 13:45:04;;;;;;;6.18;3.05;;;;;;;;;;5026777;28;20040;-84
2023/01/21 13:47:32;;;;;;;6.00;3.05;;;;;;;;;;5019187;28;20411;-84
2023/01/21 13:50:15;;;;;;;5.93;3.15;;;;;;;;;;5046321;28;20695;-84
2023/01/21 13:53:02;;;;;;;8.07;3.00;;;;;;;;;;5046007;28;20396;-85
2023/01/21 13:55:46;;;;;;;6.47;3.40;;;;;;;;;;5045997;28;20040;-84
2023/01/21 13:58:24;;;;;;;6.45;3.15;;;;;;;;;;5065376;28;20082;-85
2023/01/21 14:00:54;;;;;;;7.93;3.20;;;;;;;;;;5045217;28;20028;-85
2023/01/21 14:03:39;;;;;;;5.60;2.70;;;;;;;;;;5031262;28;20036;-84
2023/01/21 14:06:20;;;;;;;7.97;3.38;;;;;;;;;;5029146;28;20055;-85
2023/01/21 14:08:52;;;;;;;7.25;2.67;;;;;;;;;;5030295;28;20045;-85
2023/01/21 14:11:34;;;;;;;6.30;2.42;;;;;;;;;;5061153;28;20918;-85
2023/01/21 14:14:30;;;;;;;5.60;2.55;;;;;;;;;;5029070;28;20625;-85
2023/01/21 14:17:05;;;;;;;5.17;2.63;;;;;;;;;;5046195;28;20029;-84
2023/01/21 14:19:57;;;;;;;5.00;2.55;;;;;;;;;;5029411;28;20630;-84
2023/01/21 14:22:50;;;;;;;5.65;2.55;;;;;;;;;;5018548;28;20037;-85
2023/01/21 14:25:29;;;;;;;7.28;2.22;;;;;;;;;;5045437;28;20037;-84
2023/01/21 14:28:01;;;;;;;5.25;2.45;;;;;;;;;;5026155;28;20862;-83
2023/01/21 14:31:01;;;;;;;6.13;2.80;;;;;;;;;;5025416;28;20041;-85
2023/01/21 14:33:55;;;;;;;7.10;2.50;;;;;;;;;;5047179;28;20501;-85
2023/01/21 14:36:29;;;;;;;5.57;2.35;;;;;;;;;;5049754;28;20120;-84
2023/01/21 14:39:19;;;;;;;5.10;2.33;;;;;;;;;;5025952;28;20496;-83
2023/01/21 14:42:01;;;;;;;6.70;2.17;;;;;;;;;;5041227;28;20381;-85
2023/01/21 14:44:37;;;;;;;3.72;1.75;;;;;;;;;;5020434;28;20040;-84
2023/01/21 14:47:13;;;;;;;3.83;2.00;;;;;;;;;;5025984;28;20037;-84
2023/01/21 14:49:40;;;;;;;5.00;2.25;;;;;;;;;;5015264;28;20048;-85
2023/01/21 14:52:06;;;;;;;4.32;1.98;;;;;;;;;;5024199;28;20037;-85
2023/01/21 14:54:31;;;;;;;4.10;1.70;;;;;;;;;;5024691;28;20041;-84
2023/01/21 14:57:00;;;;;;;3.45;1.60;;;;;;;;;;5041273;28;20956;-85
2023/01/21 14:59:40;;;;;;;5.35;2.20;;;;;;;;;;5042410;28;20452;-85
2023/01/21 15:02:26;;;;;;;4.28;1.75;;;;;;;;;;5040620;28;20072;-83